Time;durP1;ratioP1;P1;durP2;ratioP2;P2;SDS_P1;SDS_P2;PMS_P1;PMS_P2;Temp;Humidity;BMP_temperature;BMP_pressure;BME280_temperature;BME280_humidity;BME280_pressure;Samples;Min_cycle;Max_cycle;Signal;HPM_P1;HPM_P2
2021/11/12 00:14:43;;;;;;;153.55;137.82;;;3.00;99.90;;;;;;5012068;28;20299;-86
2021/11/12 00:17:10;;;;;;;179.73;163.65;;;3.00;99.90;;;;;;5045705;28;20145;-86
2021/11/12 00:19:37;;;;;;;188.23;171.38;;;3.00;99.90;;;;;;5044472;28;20261;-86
2021/11/12 00:22:03;;;;;;;182.90;167.55;;;3.00;99.90;;;;;;5045745;28;20180;-86
2021/11/12 00:24:30;;;;;;;192.02;175.95;;;3.10;99.90;;;;;;5045700;28;20165;-87
2021/11/12 00:26:55;;;;;;;195.63;178.95;;;3.10;99.90;;;;;;5045615;28;20163;-86
2021/11/12 00:29:21;;;;;;;184.30;169.23;;;3.00;99.90;;;;;;5045586;28;20209;-86
2021/11/12 00:31:59;;;;;;;171.25;156.65;;;3.00;99.90;;;;;;5044995;28;20236;-86
2021/11/12 00:37:20;;;;;;;187.50;172.35;;;2.90;99.90;;;;;;5046372;28;20156;-87
2021/11/12 00:39:49;;;;;;;174.70;159.65;;;2.80;99.90;;;;;;5045124;28;20204;-86
2021/11/12 00:42:18;;;;;;;194.18;178.15;;;2.70;99.90;;;;;;5044341;28;20192;-86
2021/11/12 00:50:31;;;;;;;158.60;144.73;;;2.50;99.90;;;;;;5243735;22;20319;-85
2021/11/12 00:55:22;;;;;;;171.57;156.77;;;2.40;99.90;;;;;;5075760;28;20155;-85
2021/11/12 00:57:48;;;;;;;148.15;134.60;;;2.40;99.90;;;;;;5075174;28;20654;-85
2021/11/12 01:00:14;;;;;;;175.87;161.70;;;2.40;99.90;;;;;;5079623;28;20184;-85
2021/11/12 01:02:40;;;;;;;195.95;180.43;;;2.40;99.90;;;;;;5078479;28;20413;-85
2021/11/12 01:05:07;;;;;;;183.73;168.37;;;2.40;99.90;;;;;;5077558;28;20168;-86
2021/11/12 01:07:34;;;;;;;143.60;130.30;;;2.50;99.90;;;;;;5079365;28;20406;-86
2021/11/12 01:09:59;;;;;;;163.30;149.43;;;2.40;99.90;;;;;;5077692;28;20609;-85
2021/11/12 01:12:26;;;;;;;143.85;130.30;;;2.40;99.90;;;;;;5077630;28;20172;-85
2021/11/12 01:14:53;;;;;;;174.65;160.02;;;2.40;99.90;;;;;;5077498;28;20163;-85
2021/11/12 01:17:18;;;;;;;161.55;147.02;;;2.30;99.90;;;;;;5078744;28;20246;-85
2021/11/12 01:19:44;;;;;;;178.97;164.10;;;2.30;99.90;;;;;;5079009;28;20277;-85
2021/11/12 01:22:11;;;;;;;179.87;165.37;;;2.30;99.90;;;;;;5079387;28;20164;-85
2021/11/12 01:24:38;;;;;;;181.57;166.32;;;2.30;99.90;;;;;;5077214;28;20557;-85
2021/11/12 01:27:05;;;;;;;142.43;128.98;;;2.30;99.90;;;;;;5077433;28;20221;-85
2021/11/12 01:29:31;;;;;;;158.60;144.63;;;2.40;99.90;;;;;;5078611;28;20607;-85
2021/11/12 01:32:14;;;;;;;177.68;162.93;;;2.40;99.90;;;;;;5078621;28;20199;-85
2021/11/12 01:34:40;;;;;;;194.70;178.70;;;2.40;99.90;;;;;;5078850;28;20179;-85
2021/11/12 01:37:06;;;;;;;172.83;157.97;;;2.40;99.90;;;;;;5076642;28;20168;-85
2021/11/12 01:39:32;;;;;;;170.70;156.50;;;2.50;99.90;;;;;;5078179;28;20263;-85
2021/11/12 01:42:00;;;;;;;176.80;161.73;;;2.50;99.90;;;;;;5076808;28;20255;-85
2021/11/12 01:44:36;;;;;;;171.73;156.68;;;2.70;99.90;;;;;;5078867;28;20168;-85
2021/11/12 01:49:48;;;;;;;155.38;140.93;;;2.60;99.90;;;;;;5077682;28;20206;-86
2021/11/12 01:55:03;;;;;;;148.77;135.07;;;2.70;99.90;;;;;;5077884;28;20218;-85
2021/11/12 01:57:37;;;;;;;136.40;123.45;;;2.80;99.90;;;;;;5077487;28;20156;-85
2021/11/12 02:00:08;;;;;;;172.65;158.23;;;2.60;99.90;;;;;;5077862;28;20204;-85
2021/11/12 02:02:34;;;;;;;163.82;149.13;;;2.60;99.90;;;;;;5077810;28;20170;-85
2021/11/12 02:05:03;;;;;;;178.93;163.40;;;2.60;99.90;;;;;;5076674;28;20530;-86
2021/11/12 02:07:33;;;;;;;156.38;142.25;;;2.60;99.90;;;;;;5076929;28;20615;-85
2021/11/12 02:09:58;;;;;;;146.43;131.65;;;2.60;99.90;;;;;;5076032;28;20188;-85
2021/11/12 02:12:31;;;;;;;157.87;142.40;;;2.70;99.90;;;;;;5077366;28;20167;-85
2021/11/12 02:14:59;;;;;;;178.75;163.02;;;2.70;99.90;;;;;;5075530;28;20410;-85
2021/11/12 02:17:28;;;;;;;155.73;141.18;;;2.70;99.90;;;;;;5077246;28;20164;-85
2021/11/12 02:20:04;;;;;;;143.65;129.55;;;2.80;99.90;;;;;;5077111;28;20329;-85
2021/11/12 02:22:33;;;;;;;165.45;150.85;;;2.80;99.90;;;;;;5077657;28;20140;-85
2021/11/12 02:25:26;;;;;;;175.75;160.15;;;2.80;99.90;;;;;;5077432;28;20210;-85
2021/11/12 02:28:01;;;;;;;146.13;132.15;;;2.90;99.90;;;;;;5076659;28;20175;-85
2021/11/12 02:30:32;;;;;;;157.52;143.15;;;2.90;99.90;;;;;;5075646;28;20192;-85
2021/11/12 02:33:07;;;;;;;140.15;126.25;;;2.90;99.90;;;;;;5077546;28;20229;-85
2021/11/12 02:35:35;;;;;;;157.45;143.13;;;3.00;99.90;;;;;;5076958;28;20169;-84
2021/11/12 02:38:04;;;;;;;146.38;132.07;;;3.00;99.90;;;;;;5075136;28;20186;-85
2021/11/12 02:40:32;;;;;;;185.88;169.95;;;3.00;99.90;;;;;;5076754;28;20242;-85
2021/11/12 02:42:59;;;;;;;159.30;144.38;;;3.00;99.90;;;;;;5076807;28;20175;-85
2021/11/12 02:45:25;;;;;;;154.05;139.70;;;3.00;99.90;;;;;;5076341;28;20175;-85
2021/11/12 02:47:51;;;;;;;160.05;145.30;;;3.00;99.90;;;;;;5076456;28;20674;-85
2021/11/12 02:50:18;;;;;;;145.97;132.07;;;3.00;99.90;;;;;;5075544;28;20225;-85
2021/11/12 02:52:48;;;;;;;141.73;127.85;;;3.10;99.90;;;;;;5076873;28;20410;-85
2021/11/12 02:55:17;;;;;;;166.35;151.50;;;3.10;99.90;;;;;;5076351;28;20247;-85
2021/11/12 02:57:43;;;;;;;174.52;159.55;;;3.20;99.90;;;;;;5076175;28;20163;-85
2021/11/12 03:00:14;;;;;;;148.90;135.00;;;3.20;99.90;;;;;;5076772;28;20176;-85
2021/11/12 03:02:39;;;;;;;146.65;132.98;;;3.20;99.90;;;;;;5074632;28;20176;-84
2021/11/12 03:05:11;;;;;;;150.50;136.30;;;3.20;99.90;;;;;;5075164;28;20661;-85
2021/11/12 03:07:37;;;;;;;154.18;140.25;;;3.20;99.90;;;;;;5076636;28;20159;-85
2021/11/12 03:10:06;;;;;;;218.23;202.40;;;3.10;99.90;;;;;;5075154;28;20278;-85
2021/11/12 03:12:32;;;;;;;177.27;161.27;;;3.10;99.90;;;;;;5074432;28;20172;-85
2021/11/12 03:14:57;;;;;;;168.87;153.97;;;3.00;99.90;;;;;;5075766;28;20178;-85
2021/11/12 03:17:23;;;;;;;143.67;130.23;;;3.00;99.90;;;;;;5075972;28;20406;-85
2021/11/12 03:19:49;;;;;;;153.27;138.95;;;3.00;99.90;;;;;;5076895;28;20183;-85
2021/11/12 03:22:19;;;;;;;142.32;128.40;;;2.90;99.90;;;;;;5076848;28;20195;-85
2021/11/12 03:24:51;;;;;;;154.82;140.77;;;2.90;99.90;;;;;;5075673;28;20229;-85
2021/11/12 04:22:03;;;;;;;146.63;132.38;;;3.20;99.90;;;;;;5075812;28;20159;-85
2021/11/12 05:11:16;;;;;;;148.05;134.10;;;3.70;99.90;;;;;;5079427;28;20240;-86
2021/11/12 05:43:49;;;;;;;167.10;152.52;;;4.00;99.90;;;;;;5078477;28;20162;-86
2021/11/12 05:46:21;;;;;;;155.85;141.85;;;4.00;99.90;;;;;;5078024;28;20144;-86
2021/11/12 05:57:06;;;;;;;141.95;128.73;;;4.00;99.90;;;;;;5078329;28;20518;-85
2021/11/12 05:59:38;;;;;;;146.13;132.82;;;4.00;99.90;;;;;;5076324;28;20202;-86
2021/11/12 06:02:07;;;;;;;158.35;144.43;;;4.00;99.90;;;;;;5078337;28;20144;-86
2021/11/12 06:04:37;;;;;;;172.50;158.35;;;4.00;99.90;;;;;;5077411;28;20233;-86
2021/11/12 06:07:03;;;;;;;157.55;143.82;;;4.00;99.90;;;;;;5076668;28;20174;-85
2021/11/12 06:09:38;;;;;;;172.70;158.38;;;4.00;99.90;;;;;;5076059;28;20728;-85
2021/11/12 06:12:26;;;;;;;181.98;166.95;;;4.00;99.90;;;;;;5077655;28;20159;-86
2021/11/12 06:14:58;;;;;;;169.63;154.57;;;4.00;99.90;;;;;;5076462;28;20206;-85
2021/11/12 06:17:31;;;;;;;143.63;130.18;;;4.00;99.90;;;;;;5074709;28;20239;-86
2021/11/12 06:20:06;;;;;;;137.98;124.72;;;4.00;99.90;;;;;;5076292;28;20199;-86
2021/11/12 06:22:38;;;;;;;118.88;103.55;;;4.10;99.90;;;;;;5077493;28;20170;-85
2021/11/12 06:25:10;;;;;;;126.55;113.75;;;4.10;99.90;;;;;;5071801;28;20172;-85
2021/11/12 06:27:41;;;;;;;118.43;105.57;;;4.10;99.90;;;;;;5076573;28;20163;-86
2021/11/12 06:30:23;;;;;;;123.78;111.32;;;4.10;99.90;;;;;;5076299;28;20191;-86
2021/11/12 06:32:53;;;;;;;147.68;133.73;;;4.00;99.90;;;;;;5075926;28;20160;-86
2021/11/12 06:35:27;;;;;;;139.80;126.47;;;4.00;99.90;;;;;;5076017;28;20246;-86
2021/11/12 06:38:19;;;;;;;125.35;112.82;;;4.00;99.90;;;;;;5076826;28;20241;-85
2021/11/12 06:40:53;;;;;;;166.93;152.07;;;4.00;99.90;;;;;;5076083;28;20172;-85
2021/11/12 06:43:51;;;;;;;;;;;;;;;;;;;;;
2021/11/12 06:52:08;;;;;;;125.93;113.32;;;3.90;99.90;;;;;;5098821;28;20146;-84
2021/11/12 06:54:34;;;;;;;133.18;119.55;;;3.90;99.90;;;;;;5098146;28;20182;-84
2021/11/12 06:57:19;;;;;;;149.33;135.83;;;3.90;99.90;;;;;;5097131;28;20163;-85
2021/11/12 06:59:48;;;;;;;115.50;103.35;;;3.90;99.90;;;;;;5097574;28;20176;-85
2021/11/12 07:02:41;;;;;;;163.30;148.95;;;3.90;99.90;;;;;;5096720;28;20169;-85
2021/11/12 07:05:12;;;;;;;148.32;134.05;;;3.90;99.90;;;;;;5097343;28;20170;-84
2021/11/12 07:07:38;;;;;;;182.88;167.82;;;3.90;99.90;;;;;;5097488;28;20139;-83
2021/11/12 07:10:08;;;;;;;133.50;120.77;;;3.90;99.90;;;;;;5095750;28;20626;-83
2021/11/12 07:12:54;;;;;;;130.43;117.47;;;3.80;99.90;;;;;;5096530;28;20401;-84
2021/11/12 07:15:23;;;;;;;131.57;118.75;;;3.80;99.90;;;;;;5096779;28;20187;-84
2021/11/12 07:21:04;;;;;;;115.55;103.28;;;3.80;99.90;;;;;;5094197;28;20220;-83
2021/11/12 07:23:58;;;;;;;209.70;194.13;;;3.80;99.90;;;;;;5097014;28;20160;-84
2021/11/12 07:27:21;;;;;;;;;;;;;;;;;;;;;
2021/11/12 07:30:33;;;;;;;117.75;105.60;;;3.70;99.90;;;;;;5055631;28;20199;-85
2021/11/12 07:47:30;;;;;;;129.80;116.63;;;3.80;99.90;;;;;;4938481;29;20548;-84
2021/11/12 07:50:45;;;;;;;;;;;;;;;;;;;;;
2021/11/12 07:53:46;;;;;;;;;;;;;;;;;;;;;
2021/11/12 08:00:18;;;;;;;123.57;111.00;;;3.80;99.90;;;;;;4976482;28;20592;-83
2021/11/12 08:02:56;;;;;;;146.27;133.05;;;3.70;99.90;;;;;;4960100;28;20266;-85
2021/11/12 08:05:26;;;;;;;120.90;108.55;;;3.70;99.90;;;;;;4976303;28;20217;-85
2021/11/12 08:09:01;;;;;;;138.48;125.70;;;3.70;99.90;;;;;;4975099;28;20182;-85
2021/11/12 08:18:39;;;;;;;119.05;101.93;;;4.00;99.90;;;;;;4977526;28;20775;-85
2021/11/12 08:35:21;;;;;;;;;;;;;;;;;;;;;
2021/11/12 08:42:08;;;;;;;109.35;89.32;;;4.30;99.90;;;;;;5031635;28;20196;-84
2021/11/12 08:46:44;;;;;;;106.28;86.30;;;4.40;99.90;;;;;;5075448;28;20658;-85
2021/11/12 08:56:23;;;;;;;;;;;;;;;;;;;;;
2021/11/12 09:03:30;;;;;;;;;;;;;;;;;;;;;
2021/11/12 09:16:52;;;;;;;105.20;81.20;;;4.70;99.90;;;;;;4995570;28;20523;-84
2021/11/12 09:22:45;;;;;;;109.68;91.63;;;4.90;99.90;;;;;;5060305;28;20180;-84
2021/11/12 09:31:45;;;;;;;114.18;99.15;;;5.10;99.90;;;;;;5267011;22;20226;-84
2021/11/12 09:34:34;;;;;;;116.72;103.95;;;5.00;99.90;;;;;;5098342;28;20276;-84
2021/11/12 09:37:27;;;;;;;122.53;109.85;;;5.00;99.90;;;;;;5098932;28;20351;-85
2021/11/12 09:40:46;;;;;;;112.78;100.20;;;5.10;99.90;;;;;;5076715;28;20238;-84
2021/11/12 09:44:11;;;;;;;108.15;88.93;;;5.10;99.90;;;;;;5016973;28;20661;-84
2021/11/12 09:54:19;;;;;;;107.60;87.45;;;5.20;99.90;;;;;;5088626;28;20217;-84
2021/11/12 10:00:45;;;;;;;;;;;;;;;;;;;;;
2021/11/12 10:04:03;;;;;;;99.25;61.72;;;5.10;99.90;;;;;;5065401;28;20181;-85
2021/11/12 10:06:51;;;;;;;103.93;68.43;;;5.20;99.90;;;;;;5098187;28;20567;-85
2021/11/12 10:13:35;;;;;;;100.43;73.28;;;5.20;99.90;;;;;;5037432;28;20176;-85
2021/11/12 10:16:48;;;;;;;110.75;88.50;;;5.30;99.90;;;;;;4967170;28;20583;-84
2021/11/12 10:19:27;;;;;;;104.07;78.63;;;5.30;99.90;;;;;;5029524;28;20189;-85
2021/11/12 10:22:55;;;;;;;100.43;79.30;;;5.40;99.90;;;;;;5064926;28;20228;-84
2021/11/12 10:25:58;;;;;;;;;;;;;;;;;;;;;
2021/11/12 10:31:41;;;;;;;100.30;69.45;;;5.90;99.90;;;;;;5120734;22;20230;-84
2021/11/12 10:35:13;;;;;;;;;;;;;;;;;;;;;
2021/11/12 10:38:17;;;;;;;98.72;58.17;;;6.10;99.90;;;;;;5056404;28;20248;-84
2021/11/12 10:41:39;;;;;;;99.28;63.30;;;6.40;99.90;;;;;;4979167;28;20201;-84
2021/11/12 10:47:34;;;;;;;99.75;57.60;;;6.60;99.90;;;;;;5062182;28;20202;-86
2021/11/12 10:50:55;;;;;;;93.43;47.80;;;6.60;99.90;;;;;;5076312;28;20551;-84
2021/11/12 10:57:32;;;;;;;91.90;49.03;;;6.60;99.90;;;;;;5055505;28;20231;-85
2021/11/12 11:03:07;;;;;;;89.53;45.63;;;6.80;99.90;;;;;;5076730;28;20222;-84
2021/11/12 11:05:58;;;;;;;95.70;47.13;;;6.90;99.90;;;;;;5077105;28;20188;-84
2021/11/12 11:09:03;;;;;;;92.40;56.10;;;6.90;99.90;;;;;;5069577;28;20188;-84
2021/11/12 11:11:40;;;;;;;93.22;45.50;;;7.00;99.90;;;;;;5075765;28;20700;-84
2021/11/12 11:14:32;;;;;;;96.80;63.33;;;7.00;99.90;;;;;;5074840;28;20183;-85
2021/11/12 11:17:33;;;;;;;97.47;64.53;;;7.00;99.90;;;;;;5077073;28;20144;-84
2021/11/12 11:20:08;;;;;;;99.05;67.20;;;7.10;99.90;;;;;;5076491;28;20188;-84
2021/11/12 11:23:28;;;;;;;107.28;75.00;;;7.20;99.90;;;;;;5075124;28;20225;-84
2021/11/12 11:26:12;;;;;;;100.82;70.40;;;7.10;99.90;;;;;;5073062;28;20538;-84
2021/11/12 11:29:08;;;;;;;103.90;69.00;;;7.10;99.90;;;;;;5076056;28;20199;-84
2021/11/12 11:31:40;;;;;;;103.47;59.13;;;7.00;99.90;;;;;;5075430;28;20201;-84
2021/11/12 11:34:28;;;;;;;103.68;79.70;;;7.00;99.90;;;;;;5075063;28;20199;-84
2021/11/12 11:37:33;;;;;;;;;;;;;;;;;;;;;
2021/11/12 11:40:16;;;;;;;107.88;79.60;;;7.20;99.90;;;;;;5238112;22;20317;-84
2021/11/12 11:42:47;;;;;;;100.85;70.07;;;7.30;99.90;;;;;;5096853;28;20183;-84
2021/11/12 11:45:48;;;;;;;;;;;;;;;;;;;;;
2021/11/12 11:48:18;;;;;;;103.32;69.43;;;7.50;99.90;;;;;;5103149;22;21631;-85
2021/11/12 11:51:28;;;;;;;104.32;78.45;;;7.40;99.90;;;;;;5098481;28;20175;-84
2021/11/12 11:54:20;;;;;;;93.20;39.95;;;7.50;99.90;;;;;;5086464;28;20195;-84
2021/11/12 11:57:22;;;;;;;93.30;42.63;;;7.50;99.90;;;;;;5097883;28;20147;-85
2021/11/12 12:00:27;;;;;;;91.03;42.13;;;7.60;99.90;;;;;;5073557;28;20552;-85
2021/11/12 12:03:47;;;;;;;90.72;37.72;;;7.60;99.90;;;;;;5095660;28;20170;-85
2021/11/12 12:07:10;;;;;;;91.50;44.78;;;7.60;99.90;;;;;;5095624;28;20159;-84
2021/11/12 12:10:00;;;;;;;89.35;35.78;;;7.50;99.90;;;;;;5095557;28;20183;-85
2021/11/12 12:13:31;;;;;;;;;;;;;;;;;;;;;
2021/11/12 12:16:12;;;;;;;98.00;51.85;;;7.50;99.90;;;;;;5084729;28;20575;-85
2021/11/12 12:19:29;;;;;;;100.30;65.90;;;7.50;99.90;;;;;;5095830;28;20206;-84
2021/11/12 12:22:15;;;;;;;98.22;60.85;;;7.50;99.90;;;;;;4998075;28;20182;-84
2021/11/12 12:30:54;;;;;;;97.03;56.00;;;7.60;99.90;;;;;;5095951;28;20539;-84
2021/11/12 13:22:00;;;;;;;96.78;53.97;;;8.10;99.90;;;;;;5079125;28;20262;-86
2021/11/12 13:24:32;;;;;;;97.75;60.83;;;8.10;99.90;;;;;;5060562;28;20217;-86
2021/11/12 13:27:02;;;;;;;98.03;56.78;;;8.10;99.90;;;;;;5060662;28;20199;-86
2021/11/12 13:29:40;;;;;;;95.25;56.60;;;8.00;99.90;;;;;;5079725;28;20237;-86
2021/11/12 13:32:09;;;;;;;95.53;52.42;;;8.00;99.90;;;;;;5066398;28;20221;-85
2021/11/12 13:34:52;;;;;;;92.25;48.35;;;8.00;99.90;;;;;;5064792;28;20195;-86
2021/11/12 13:37:20;;;;;;;96.15;61.00;;;7.90;99.90;;;;;;5061344;28;20202;-85
2021/11/12 13:40:43;;;;;;;91.53;52.38;;;7.90;99.90;;;;;;5060128;28;20184;-86
2021/11/12 13:43:35;;;;;;;98.30;61.17;;;8.00;99.90;;;;;;5061001;28;20168;-86
2021/11/12 13:46:10;;;;;;;96.68;59.55;;;8.00;99.90;;;;;;5060286;28;20172;-86
2021/11/12 13:49:21;;;;;;;98.25;66.00;;;8.00;99.90;;;;;;5059451;28;20723;-86
2021/11/12 13:55:20;;;;;;;82.47;25.77;;;8.10;99.90;;;;;;5058796;28;20203;-86
2021/11/12 13:57:58;;;;;;;83.15;21.02;;;8.20;99.90;;;;;;5077106;28;20630;-86
2021/11/12 14:00:30;;;;;;;86.05;32.97;;;8.20;99.90;;;;;;5061086;28;20263;-86
2021/11/12 14:03:05;;;;;;;83.47;27.35;;;8.10;99.90;;;;;;5078712;28;20170;-86
2021/11/12 14:05:33;;;;;;;80.40;17.98;;;8.10;99.90;;;;;;5078839;28;20239;-84
2021/11/12 14:08:09;;;;;;;80.20;22.15;;;8.20;99.90;;;;;;5081446;28;20164;-85
2021/11/12 14:10:52;;;;;;;81.60;23.83;;;8.10;99.90;;;;;;5080761;28;20158;-86
2021/11/12 14:13:21;;;;;;;87.80;23.88;;;8.10;99.90;;;;;;5060789;28;20192;-84
2021/11/12 14:16:27;;;;;;;81.10;20.70;;;8.00;99.90;;;;;;5060124;28;20172;-84
2021/11/12 14:27:13;;;;;;;86.80;27.92;;;8.10;99.90;;;;;;5076648;28;20151;-84
2021/11/12 14:30:15;;;;;;;87.40;23.67;;;8.00;99.90;;;;;;5058750;28;20222;-84
2021/11/12 14:33:12;;;;;;;80.47;16.35;;;8.00;99.90;;;;;;5059326;28;20156;-84
2021/11/12 14:49:59;;;;;;;96.35;59.83;;;7.70;99.90;;;;;;5077391;28;20229;-85
2021/11/12 14:52:56;;;;;;;96.55;62.33;;;7.70;99.90;;;;;;5059452;28;20180;-85
2021/11/12 14:55:25;;;;;;;102.65;76.88;;;7.60;99.90;;;;;;5059331;28;20183;-86
2021/11/12 14:57:56;;;;;;;101.72;73.80;;;7.60;99.90;;;;;;5060760;28;20164;-86
2021/11/12 15:00:28;;;;;;;100.57;71.57;;;7.50;99.90;;;;;;5059832;28;20170;-86
2021/11/12 15:02:58;;;;;;;97.95;68.78;;;7.50;99.90;;;;;;5060458;28;20168;-86
2021/11/12 15:05:25;;;;;;;101.43;69.15;;;7.50;99.90;;;;;;5060584;28;20159;-86
2021/11/12 15:08:22;;;;;;;102.13;71.32;;;7.40;99.90;;;;;;5077528;28;20569;-86
2021/11/12 15:14:28;;;;;;;105.05;57.05;;;7.30;99.90;;;;;;5015740;28;20639;-86
2021/11/12 15:20:29;;;;;;;93.72;40.17;;;7.20;99.90;;;;;;5015130;28;20700;-85
2021/11/12 15:26:19;;;;;;;89.43;36.45;;;7.10;99.90;;;;;;5042016;28;20574;-86
2021/11/12 15:32:10;;;;;;;112.88;87.38;;;6.90;99.90;;;;;;5058890;28;20172;-86
2021/11/12 15:34:48;;;;;;;103.00;73.85;;;6.80;99.90;;;;;;5059777;28;20192;-86
2021/11/12 15:46:50;;;;;;;112.63;91.32;;;6.70;99.90;;;;;;5011422;28;20728;-86
2021/11/12 15:49:23;;;;;;;104.10;83.50;;;6.60;99.90;;;;;;5040308;28;20222;-86
2021/11/12 15:52:06;;;;;;;117.85;104.82;;;6.60;99.90;;;;;;5078733;28;20151;-86
2021/11/12 15:54:59;;;;;;;110.65;98.63;;;6.50;99.90;;;;;;5060024;28;20187;-85
2021/11/12 16:00:16;;;;;;;125.32;112.68;;;6.40;99.90;;;;;;5077322;28;20709;-84
2021/11/12 16:15:12;;;;;;;142.82;129.50;;;6.20;99.90;;;;;;5071401;28;20306;-84
2021/11/12 16:24:00;;;;;;;137.38;124.47;;;6.10;99.90;;;;;;5076676;28;20166;-86
2021/11/12 16:26:33;;;;;;;122.28;109.90;;;6.00;99.90;;;;;;5058452;28;20168;-86
2021/11/12 16:31:35;;;;;;;126.78;113.55;;;6.00;99.90;;;;;;5077174;28;20239;-86
2021/11/12 16:34:09;;;;;;;110.15;92.30;;;6.00;99.90;;;;;;5059125;28;20732;-85
2021/11/12 16:37:08;;;;;;;111.20;95.07;;;5.90;99.90;;;;;;5061257;28;20167;-85
2021/11/12 16:43:28;;;;;;;107.65;93.82;;;5.80;99.90;;;;;;5074875;28;20161;-86
2021/11/12 16:48:04;;;;;;;107.05;91.50;;;5.80;99.90;;;;;;5075892;28;20167;-86
2021/11/12 16:51:13;;;;;;;102.20;82.57;;;5.80;99.90;;;;;;5057786;28;20189;-86
2021/11/12 16:59:01;;;;;;;113.63;101.28;;;5.70;99.90;;;;;;5075420;28;20689;-86
2021/11/12 17:01:51;;;;;;;111.72;94.55;;;5.60;99.90;;;;;;5075555;28;20516;-86
2021/11/12 17:04:25;;;;;;;179.68;164.55;;;5.60;99.90;;;;;;5074970;28;20690;-86
2021/11/12 17:15:24;;;;;;;173.93;159.52;;;5.40;99.90;;;;;;5074017;28;20276;-86
2021/11/12 17:45:30;;;;;;;129.45;116.88;;;5.20;99.90;;;;;;5080286;28;20163;-84
2021/11/12 17:48:07;;;;;;;139.40;125.78;;;5.20;99.90;;;;;;5079426;28;20144;-86
2021/11/12 17:53:34;;;;;;;147.57;133.63;;;5.20;99.90;;;;;;5079768;28;20202;-85
2021/11/12 21:44:48;;;;;;;97.22;61.22;;;5.10;99.90;;;;;;5078646;28;20210;-84
2021/11/12 21:47:14;;;;;;;94.13;57.97;;;5.10;99.90;;;;;;5059895;28;20225;-84
2021/11/12 21:49:39;;;;;;;97.37;59.73;;;5.10;99.90;;;;;;5077106;28;20200;-84
2021/11/12 21:52:08;;;;;;;105.70;67.33;;;5.10;99.90;;;;;;5077447;28;20164;-84
2021/11/12 21:54:34;;;;;;;96.43;57.80;;;5.00;99.90;;;;;;5059502;28;20679;-84
2021/11/12 21:57:01;;;;;;;100.72;67.03;;;5.00;99.90;;;;;;5059792;28;20231;-84
2021/11/12 21:59:31;;;;;;;96.57;58.10;;;5.00;99.90;;;;;;5059558;28;20222;-84
2021/11/12 22:01:57;;;;;;;107.57;68.25;;;5.00;99.90;;;;;;5077301;28;20168;-85
2021/11/12 22:04:27;;;;;;;95.53;62.60;;;5.00;99.90;;;;;;5076809;28;20168;-84
2021/11/12 22:06:53;;;;;;;96.40;61.53;;;5.00;99.90;;;;;;5059643;28;20164;-84
2021/11/12 22:09:19;;;;;;;112.43;75.05;;;5.00;99.90;;;;;;5059503;28;20191;-85
2021/11/12 22:11:44;;;;;;;99.20;75.67;;;5.00;99.90;;;;;;5060391;28;20176;-84
2021/11/12 22:14:10;;;;;;;98.67;67.83;;;5.00;99.90;;;;;;5059238;28;20282;-85
2021/11/12 22:16:36;;;;;;;99.07;73.87;;;5.00;99.90;;;;;;5059552;28;20652;-84
2021/11/12 22:19:08;;;;;;;102.17;75.80;;;5.00;99.90;;;;;;5076924;28;20233;-84
2021/11/12 22:21:34;;;;;;;104.38;80.50;;;4.90;99.90;;;;;;5076905;28;20168;-84
2021/11/12 22:24:01;;;;;;;103.25;73.63;;;4.90;99.90;;;;;;5076706;28;20171;-84
2021/11/12 22:26:27;;;;;;;100.68;73.57;;;4.90;99.90;;;;;;5076031;28;20151;-84
2021/11/12 22:29:23;;;;;;;117.15;103.30;;;5.00;99.90;;;;;;5077056;28;20194;-84
2021/11/12 22:32:01;;;;;;;96.30;67.32;;;5.00;99.90;;;;;;5070483;28;20204;-84
2021/11/12 22:34:29;;;;;;;101.18;70.97;;;5.00;99.90;;;;;;5058983;28;20274;-84
2021/11/12 22:36:55;;;;;;;102.30;73.30;;;5.10;99.90;;;;;;5077019;28;20160;-84
2021/11/12 22:39:22;;;;;;;100.57;68.50;;;5.10;99.90;;;;;;5076288;28;20221;-84
2021/11/12 22:41:52;;;;;;;97.07;66.18;;;5.20;99.90;;;;;;5058153;28;20951;-84
2021/11/12 22:44:21;;;;;;;103.88;78.25;;;5.30;99.90;;;;;;5076194;28;20164;-84
2021/11/12 22:46:46;;;;;;;96.03;62.08;;;5.30;99.90;;;;;;5075938;28;20677;-84
2021/11/12 22:49:15;;;;;;;106.97;74.63;;;5.30;99.90;;;;;;5077269;28;20207;-84
2021/11/12 22:51:41;;;;;;;102.45;72.93;;;5.40;99.90;;;;;;5077779;28;20918;-85
2021/11/12 22:54:07;;;;;;;102.17;60.47;;;5.40;99.90;;;;;;5077256;28;20191;-85
2021/11/12 22:56:36;;;;;;;98.90;53.45;;;5.50;99.90;;;;;;5078597;28;20402;-85
2021/11/12 22:59:04;;;;;;;95.05;56.13;;;5.50;99.90;;;;;;5077658;28;20183;-85
2021/11/12 23:01:33;;;;;;;102.22;66.40;;;5.60;99.90;;;;;;5060031;28;20172;-85
2021/11/12 23:04:00;;;;;;;101.38;72.15;;;5.60;99.90;;;;;;5077739;28;20250;-85
2021/11/12 23:06:26;;;;;;;101.15;75.75;;;5.60;99.90;;;;;;5078432;28;20168;-86
2021/11/12 23:08:52;;;;;;;104.55;80.60;;;5.60;99.90;;;;;;5078454;28;20190;-86
2021/11/12 23:11:19;;;;;;;103.47;83.00;;;5.50;99.90;;;;;;5078985;28;20172;-86
2021/11/12 23:13:47;;;;;;;103.47;83.25;;;5.40;99.90;;;;;;5060607;28;20196;-86
2021/11/12 23:16:14;;;;;;;103.30;79.28;;;5.40;99.90;;;;;;5058808;28;20205;-84
2021/11/12 23:18:43;;;;;;;98.75;70.72;;;5.40;99.90;;;;;;5060277;28;20188;-86
2021/11/12 23:21:09;;;;;;;102.22;73.93;;;5.40;99.90;;;;;;5060131;28;20171;-86
2021/11/12 23:23:37;;;;;;;102.97;76.03;;;5.40;99.90;;;;;;5076552;28;20164;-85
2021/11/12 23:26:04;;;;;;;98.32;64.70;;;5.40;99.90;;;;;;5060045;28;20398;-86
2021/11/12 23:28:30;;;;;;;103.82;75.20;;;5.50;99.90;;;;;;5060251;28;20194;-86
2021/11/12 23:31:02;;;;;;;106.53;84.43;;;5.50;99.90;;;;;;5060835;28;20218;-86
2021/11/12 23:33:28;;;;;;;105.07;79.78;;;5.50;99.90;;;;;;5078204;28;20147;-85
2021/11/12 23:36:00;;;;;;;110.80;89.13;;;5.50;99.90;;;;;;5078116;28;20363;-86
2021/11/12 23:38:28;;;;;;;106.68;82.22;;;5.50;99.90;;;;;;5078347;28;20188;-86
2021/11/12 23:40:54;;;;;;;98.75;67.85;;;5.50;99.90;;;;;;5078918;28;20164;-86
2021/11/12 23:43:20;;;;;;;110.13;88.60;;;5.50;99.90;;;;;;5078638;28;20164;-86
2021/11/12 23:45:49;;;;;;;100.30;70.90;;;5.50;99.90;;;;;;5061157;28;20551;-85
2021/11/12 23:48:24;;;;;;;102.13;73.05;;;5.50;99.90;;;;;;5078008;28;20188;-86
2021/11/12 23:50:50;;;;;;;96.25;61.88;;;5.50;99.90;;;;;;5078358;28;20156;-86
2021/11/12 23:53:18;;;;;;;96.73;64.60;;;5.50;99.90;;;;;;5077873;28;20627;-86
2021/11/12 23:55:44;;;;;;;101.57;69.47;;;5.60;99.90;;;;;;5043639;28;20172;-86
2021/11/12 23:58:13;;;;;;;98.60;66.40;;;5.60;99.90;;;;;;5078402;28;20205;-86
